Kurdo, Arkansas
Current Conditions -  °F | °C
As of 7:35 PM on Friday 24 Oct 2014 (Local Time) from KRNV Reporting Station
Clear Clear  
Wind Chill: 60°   Ceiling: Unl
Heat Index: 60°   Visibility: 10mi
Dew Point: 56°   Wind: 3mph
Humidity: 86%   Direction: 310°NW
Pressure: 30.1"   Gusts: NA
Location:  33.8911°N, 91.2569°W
Report Text: KRNV 250035Z AUTO 31003KT 10SM CLR 16/13 A3010 RMK AO2 T01560132
Loading
Personal Weather Stations






























Interactive Weather Map
Tropical Storm Tracking
New forecast layout! Learn more

10-Day Weather Forecast

Advertisements
Track Severe Weather on mobile